createdAt,value
2018-08-19T00:00:54.597Z,5.00
2018-08-19T00:03:24.296Z,5.90
2018-08-19T00:05:54.295Z,7.73
2018-08-19T00:08:24.005Z,5.10
2018-08-19T00:11:01.966Z,6.47
2018-08-19T00:13:31.784Z,5.08
2018-08-19T00:16:01.545Z,4.50
2018-08-19T00:18:31.343Z,4.72
2018-08-19T00:21:00.928Z,4.57
2018-08-19T00:23:35.901Z,5.23
2018-08-19T00:26:05.516Z,4.70
2018-08-19T00:28:35.197Z,6.80
2018-08-19T00:31:07.147Z,4.70
2018-08-19T00:33:36.789Z,5.80
2018-08-19T00:36:31.554Z,6.57
2018-08-19T00:39:01.150Z,5.03
2018-08-19T00:41:30.758Z,7.93
2018-08-19T00:44:00.429Z,5.87
2018-08-19T00:46:32.488Z,5.67
2018-08-19T00:49:02.493Z,4.80
2018-08-19T00:51:32.262Z,4.50
2018-08-19T00:54:01.843Z,4.60
2018-08-19T00:56:31.424Z,4.40
2018-08-19T00:59:01.031Z,5.20
2018-08-19T01:01:36.418Z,4.30
2018-08-19T01:04:08.720Z,5.23
2018-08-19T01:06:43.563Z,5.67
2018-08-19T01:09:13.257Z,5.00
2018-08-19T01:11:44.406Z,5.23
2018-08-19T01:14:15.934Z,6.80
2018-08-19T01:16:45.695Z,5.83
2018-08-19T01:19:16.347Z,7.90
2018-08-19T01:21:48.316Z,6.40
2018-08-19T01:24:17.939Z,7.17
2018-08-19T01:26:47.615Z,4.87
2018-08-19T01:29:27.004Z,4.70
2018-08-19T01:31:57.493Z,6.67
2018-08-19T01:34:27.161Z,4.67
2018-08-19T01:36:56.870Z,4.70
2018-08-19T01:39:26.473Z,5.40
2018-08-19T01:41:56.089Z,4.97
2018-08-19T01:44:25.713Z,5.00
2018-08-19T01:46:55.294Z,5.70
2018-08-19T01:49:24.950Z,5.50
2018-08-19T01:51:54.557Z,5.43
2018-08-19T01:54:24.906Z,6.17
2018-08-19T01:56:56.723Z,5.37
2018-08-19T01:59:32.391Z,4.63
2018-08-19T02:02:03.677Z,5.97
2018-08-19T02:04:35.557Z,4.90
2018-08-19T02:07:05.242Z,4.47
2018-08-19T02:09:34.980Z,4.70
2018-08-19T02:12:04.555Z,4.30
2018-08-19T02:14:34.109Z,4.63
2018-08-19T02:17:04.873Z,4.47
2018-08-19T02:19:34.500Z,6.40
2018-08-19T02:22:04.198Z,5.40
2018-08-19T02:24:33.853Z,4.30
2018-08-19T02:27:03.446Z,4.73
2018-08-19T02:29:36.192Z,4.63
2018-08-19T02:32:07.439Z,4.60
2018-08-19T02:34:39.026Z,4.20
2018-08-19T02:37:10.945Z,5.00
2018-08-19T02:39:44.746Z,4.40
2018-08-19T02:42:28.590Z,4.60
2018-08-19T02:45:05.885Z,4.73
2018-08-19T02:47:36.305Z,5.20
2018-08-19T02:50:06.622Z,4.83
2018-08-19T02:52:38.392Z,5.47
2018-08-19T02:55:08.952Z,4.70
2018-08-19T02:57:41.139Z,5.10
2018-08-19T03:00:12.416Z,4.13
2018-08-19T03:02:42.989Z,4.90
2018-08-19T03:05:14.439Z,4.50
2018-08-19T03:07:44.099Z,5.03
2018-08-19T03:10:15.215Z,4.50
2018-08-19T03:12:45.379Z,4.20
2018-08-19T03:15:16.221Z,5.60
2018-08-19T03:17:49.365Z,4.67
2018-08-19T03:20:19.071Z,4.63
2018-08-19T03:22:48.573Z,4.47
2018-08-19T03:25:18.172Z,5.27
2018-08-19T03:27:47.795Z,4.03
2018-08-19T03:30:17.367Z,4.23
2018-08-19T03:32:52.234Z,4.07
2018-08-19T03:35:22.427Z,3.87
2018-08-19T03:37:54.541Z,4.20
2018-08-19T03:40:26.330Z,7.30
2018-08-19T03:42:56.074Z,5.47
2018-08-19T03:45:25.798Z,3.60
2018-08-19T03:47:55.397Z,6.53
2018-08-19T03:50:26.820Z,4.40
2018-08-19T03:52:57.284Z,6.67
2018-08-19T03:55:32.841Z,4.07
2018-08-19T03:58:06.531Z,7.10
2018-08-19T04:00:38.125Z,5.43
2018-08-19T04:03:16.136Z,4.07
2018-08-19T04:05:54.704Z,4.50
2018-08-19T04:08:33.352Z,4.90
2018-08-19T04:11:06.522Z,4.40
2018-08-19T04:13:38.571Z,4.67
2018-08-19T04:16:09.477Z,4.37
2018-08-19T04:18:43.385Z,4.33
2018-08-19T04:21:15.181Z,4.93
2018-08-19T04:23:47.002Z,4.40
2018-08-19T04:26:16.625Z,4.50
2018-08-19T04:28:46.874Z,4.83
2018-08-19T04:31:21.545Z,4.63
2018-08-19T04:33:51.188Z,4.77
2018-08-19T04:36:22.020Z,4.07
2018-08-19T04:38:51.689Z,4.13
2018-08-19T04:41:21.382Z,4.60
2018-08-19T04:43:51.165Z,4.53
2018-08-19T04:46:20.728Z,4.73
2018-08-19T04:48:50.307Z,4.27
2018-08-19T04:51:19.906Z,4.13
2018-08-19T04:53:49.564Z,3.90
2018-08-19T04:56:19.381Z,5.70
2018-08-19T04:58:48.951Z,3.97
2018-08-19T05:01:18.572Z,4.10
2018-08-19T05:03:48.328Z,6.93
2018-08-19T05:06:17.889Z,4.13
2018-08-19T05:08:47.457Z,4.33
2018-08-19T05:11:17.056Z,4.63
2018-08-19T05:13:46.689Z,4.30
2018-08-19T05:16:16.278Z,4.03
2018-08-19T05:18:52.224Z,4.30
2018-08-19T05:21:22.005Z,4.30
2018-08-19T05:23:51.629Z,4.53
2018-08-19T05:26:21.291Z,4.50
2018-08-19T05:29:06.384Z,4.77
2018-08-19T05:31:39.593Z,5.60
2018-08-19T05:34:16.395Z,4.10
2018-08-19T05:36:49.495Z,4.53
2018-08-19T05:39:19.692Z,3.90
2018-08-19T05:42:00.159Z,4.07
2018-08-19T05:44:35.453Z,4.30
2018-08-19T05:47:09.587Z,4.50
2018-08-19T05:49:42.219Z,4.17
2018-08-19T05:52:16.435Z,4.83
2018-08-19T05:54:51.133Z,4.00
2018-08-19T05:57:20.920Z,4.23
2018-08-19T05:59:51.704Z,4.10
2018-08-19T06:02:33.617Z,4.40
2018-08-19T06:05:04.380Z,3.97
2018-08-19T06:07:34.089Z,4.60
2018-08-19T06:10:03.829Z,4.47
2018-08-19T06:12:33.500Z,7.00
2018-08-19T06:15:03.498Z,4.27
2018-08-19T06:17:33.067Z,4.10
2018-08-19T06:20:02.686Z,4.47
2018-08-19T06:22:37.445Z,4.87
2018-08-19T06:25:07.101Z,4.20
2018-08-19T06:27:41.579Z,4.57
2018-08-19T06:30:11.275Z,5.00
2018-08-19T06:32:40.969Z,3.83
2018-08-19T06:35:10.619Z,3.97
2018-08-19T06:37:40.253Z,4.20
2018-08-19T06:40:11.678Z,4.73
2018-08-19T06:42:41.277Z,4.17
2018-08-19T06:45:12.109Z,4.00
2018-08-19T06:47:41.870Z,3.90
2018-08-19T06:50:21.965Z,4.50
2018-08-19T06:52:51.813Z,4.40
2018-08-19T06:55:21.726Z,4.13
2018-08-19T06:57:51.412Z,6.20
2018-08-19T07:00:25.592Z,4.83
2018-08-19T07:02:56.118Z,6.45
2018-08-19T07:05:25.823Z,4.97
2018-08-19T07:07:55.403Z,7.50
2018-08-19T07:10:31.245Z,4.55
2018-08-19T07:13:08.233Z,5.75
2018-08-19T07:15:39.293Z,4.90
2018-08-19T07:18:11.854Z,4.80
2018-08-19T07:20:42.265Z,4.60
2018-08-19T07:23:12.353Z,5.37
2018-08-19T07:25:44.326Z,5.03
2018-08-19T07:28:15.165Z,5.40
2018-08-19T07:30:44.882Z,5.40
2018-08-19T07:33:14.988Z,5.12
2018-08-19T07:35:44.595Z,4.92
2018-08-19T07:38:14.201Z,6.35
2018-08-19T07:40:43.813Z,4.80
2018-08-19T07:43:13.486Z,5.20
2018-08-19T07:45:43.069Z,6.20
2018-08-19T07:48:12.772Z,6.37
2018-08-19T07:50:42.373Z,5.73
2018-08-19T07:53:12.012Z,8.93
2018-08-19T07:55:41.536Z,6.67
2018-08-19T07:58:11.185Z,6.33
2018-08-19T08:00:41.489Z,7.67
2018-08-19T08:03:11.348Z,6.35
2018-08-19T08:05:46.141Z,7.25
2018-08-19T08:08:15.751Z,5.78
2018-08-19T08:10:47.601Z,6.10
2018-08-19T08:13:17.455Z,5.90
2018-08-19T08:15:52.097Z,6.12
2018-08-19T08:18:21.837Z,5.77
2018-08-19T08:20:57.392Z,6.17
2018-08-19T08:23:28.491Z,6.00
2018-08-19T08:25:58.042Z,5.90
2018-08-19T08:28:28.951Z,5.20
2018-08-19T08:31:01.590Z,5.40
2018-08-19T08:33:31.268Z,5.40
2018-08-19T08:36:00.824Z,5.72
2018-08-19T08:38:30.534Z,5.17
2018-08-19T08:41:00.074Z,4.92
2018-08-19T08:43:29.705Z,5.28
2018-08-19T08:45:59.374Z,5.10
2018-08-19T08:48:29.342Z,5.40
2018-08-19T08:50:58.894Z,4.80
2018-08-19T08:53:34.682Z,5.12
2018-08-19T08:56:04.990Z,5.10
2018-08-19T08:58:35.898Z,5.03
2018-08-19T09:01:06.045Z,5.65
2018-08-19T09:03:36.690Z,6.90
2018-08-19T09:06:15.752Z,4.87
2018-08-19T09:08:45.322Z,4.97
2018-08-19T09:11:15.684Z,5.65
2018-08-19T09:13:45.548Z,4.75
2018-08-19T09:16:16.029Z,5.53
2018-08-19T09:18:45.663Z,5.50
2018-08-19T09:21:15.764Z,5.58
2018-08-19T09:23:45.567Z,5.50
2018-08-19T09:26:15.450Z,5.05
2018-08-19T09:28:45.108Z,5.47
2018-08-19T09:31:14.805Z,6.95
2018-08-19T09:33:44.362Z,5.25
2018-08-19T09:36:13.986Z,5.60
2018-08-19T09:38:43.588Z,5.40
2018-08-19T09:41:13.204Z,5.28
2018-08-19T09:43:42.824Z,6.10
2018-08-19T09:46:12.352Z,5.33
2018-08-19T09:48:42.039Z,6.03
2018-08-19T09:51:16.233Z,5.83
2018-08-19T09:53:46.273Z,5.28
2018-08-19T09:56:15.972Z,5.65
2018-08-19T09:58:51.565Z,8.13
2018-08-19T10:01:26.412Z,5.70
2018-08-19T10:03:55.948Z,5.17
2018-08-19T10:06:27.089Z,8.98
2018-08-19T10:08:56.622Z,5.33
2018-08-19T10:11:26.631Z,6.50
2018-08-19T10:14:00.245Z,6.58
2018-08-19T10:16:42.824Z,4.90
2018-08-19T10:19:13.414Z,6.22
2018-08-19T10:21:43.236Z,5.83
2018-08-19T10:24:23.512Z,5.85
2018-08-19T10:26:53.116Z,7.10
2018-08-19T10:29:23.093Z,5.20
2018-08-19T10:31:55.041Z,6.85
2018-08-19T10:34:30.979Z,5.47
2018-08-19T10:37:01.400Z,5.67
2018-08-19T10:39:31.115Z,6.00
2018-08-19T10:42:17.244Z,5.85
2018-08-19T10:44:48.797Z,6.03
2018-08-19T10:47:20.344Z,7.08
2018-08-19T10:49:55.069Z,8.25
2018-08-19T10:52:30.543Z,8.40
2018-08-19T10:55:01.513Z,8.85
2018-08-19T10:57:32.420Z,5.90
2018-08-19T11:00:02.068Z,5.97
2018-08-19T11:02:32.151Z,6.28
2018-08-19T11:05:01.833Z,7.15
2018-08-19T11:07:31.429Z,6.03
2018-08-19T11:10:25.077Z,6.08
2018-08-19T11:12:57.578Z,10.05
2018-08-19T11:15:34.212Z,6.22
2018-08-19T11:18:17.406Z,6.03
2018-08-19T11:20:50.231Z,5.80
2018-08-19T11:23:22.928Z,5.80
2018-08-19T11:25:54.590Z,6.58
2018-08-19T11:28:37.213Z,6.37
2018-08-19T11:31:07.724Z,5.85
2018-08-19T11:33:42.124Z,5.15
2018-08-19T11:36:12.592Z,5.42
2018-08-19T11:38:43.114Z,6.55
2018-08-19T11:41:12.960Z,7.87
2018-08-19T11:43:43.884Z,7.08
2018-08-19T11:46:14.162Z,5.40
2018-08-19T11:48:44.147Z,6.10
2018-08-19T11:51:15.623Z,5.75
2018-08-19T11:53:45.318Z,6.17
2018-08-19T11:56:15.037Z,6.87
2018-08-19T11:58:47.593Z,6.10
2018-08-19T12:01:20.736Z,6.10
2018-08-19T12:04:03.720Z,6.00
2018-08-19T12:06:34.326Z,6.28
2018-08-19T12:09:06.248Z,6.50
2018-08-19T12:11:37.111Z,6.67
2018-08-19T12:14:09.870Z,7.28
2018-08-19T12:16:46.908Z,6.22
2018-08-19T12:19:21.886Z,8.68
2018-08-19T12:21:52.860Z,8.98
2018-08-19T12:24:37.356Z,6.20
2018-08-19T12:27:08.604Z,6.40
2018-08-19T12:29:39.271Z,6.40
2018-08-19T12:32:13.312Z,6.75
2018-08-19T12:34:49.207Z,5.55
2018-08-19T12:37:20.194Z,6.17
2018-08-19T12:39:50.044Z,6.15
2018-08-19T12:42:19.715Z,6.65
2018-08-19T12:44:59.451Z,6.35
2018-08-19T12:47:29.302Z,7.25
2018-08-19T12:50:01.293Z,5.90
2018-08-19T12:52:32.182Z,6.05
2018-08-19T12:55:05.938Z,6.58
2018-08-19T12:57:36.634Z,9.53
2018-08-19T13:00:32.347Z,8.20
2018-08-19T13:03:02.394Z,7.15
2018-08-19T13:05:34.682Z,5.80
2018-08-19T13:08:06.283Z,8.45
2018-08-19T13:10:48.388Z,7.03
2018-08-19T13:13:18.931Z,6.22
2018-08-19T13:15:48.728Z,6.42
2018-08-19T13:18:28.333Z,7.58
2018-08-19T13:21:04.098Z,6.15
2018-08-19T13:23:34.452Z,6.15
2018-08-19T13:26:04.172Z,5.92
2018-08-19T13:28:38.804Z,7.45
2018-08-19T13:31:08.482Z,6.22
2018-08-19T13:33:38.096Z,6.28
2018-08-19T13:36:08.742Z,6.15
2018-08-19T13:38:40.461Z,6.55
2018-08-19T13:41:10.069Z,8.10
2018-08-19T13:43:39.690Z,6.42
2018-08-19T13:46:09.334Z,6.10
2018-08-19T13:48:38.957Z,6.78
2018-08-19T13:51:08.980Z,10.15
2018-08-19T13:53:38.621Z,6.87
2018-08-19T13:56:08.244Z,5.80
2018-08-19T13:58:37.826Z,6.25
2018-08-19T14:01:07.373Z,7.00
2018-08-19T14:03:36.905Z,8.78
2018-08-19T14:06:06.734Z,5.90
2018-08-19T14:08:36.365Z,6.28
2018-08-19T14:11:06.128Z,5.80
2018-08-19T14:13:35.731Z,6.00
2018-08-19T14:16:05.399Z,6.80
2018-08-19T14:18:35.066Z,6.70
2018-08-19T14:21:04.732Z,6.00
2018-08-19T14:23:34.373Z,12.40
2018-08-19T14:26:03.994Z,7.17
2018-08-19T14:28:33.651Z,6.10
2018-08-19T14:31:03.341Z,8.50
2018-08-19T14:33:32.961Z,6.55
2018-08-19T14:36:02.637Z,7.10
2018-08-19T14:38:32.389Z,5.95
2018-08-19T14:41:02.116Z,8.58
2018-08-19T14:43:31.940Z,7.67
2018-08-19T14:46:01.828Z,6.62
2018-08-19T14:48:31.704Z,5.97
2018-08-19T14:51:01.293Z,6.08
2018-08-19T14:53:30.912Z,6.42
2018-08-19T14:56:20.381Z,5.87
2018-08-19T14:58:50.014Z,6.42
2018-08-19T15:01:19.612Z,7.40
2018-08-19T15:03:54.167Z,6.53
2018-08-19T15:06:23.871Z,8.63
2018-08-19T15:08:53.514Z,6.00
2018-08-19T15:11:23.205Z,7.00
2018-08-19T15:13:52.915Z,6.55
2018-08-19T15:16:22.512Z,6.47
2018-08-19T15:18:52.128Z,7.83
2018-08-19T15:21:21.833Z,6.53
2018-08-19T15:23:51.396Z,6.20
2018-08-19T15:26:21.036Z,6.10
2018-08-19T15:28:50.674Z,6.05
2018-08-19T15:31:25.467Z,6.47
2018-08-19T15:33:55.279Z,5.83
2018-08-19T15:36:24.942Z,8.73
2018-08-19T15:38:54.621Z,5.80
2018-08-19T15:41:24.261Z,6.33
2018-08-19T15:43:53.882Z,7.22
2018-08-19T15:46:30.843Z,6.12
2018-08-19T15:49:00.477Z,11.20
2018-08-19T15:51:30.561Z,6.60
2018-08-19T15:54:00.197Z,8.40
2018-08-19T15:56:29.803Z,7.30
2018-08-19T15:59:00.661Z,6.47
2018-08-19T16:01:32.039Z,6.15
2018-08-19T16:04:06.911Z,7.28
2018-08-19T16:06:36.702Z,6.80
2018-08-19T16:09:09.737Z,7.95
2018-08-19T16:11:39.584Z,6.92
2018-08-19T16:14:21.940Z,6.95
2018-08-19T16:16:52.128Z,8.60
2018-08-19T16:19:22.337Z,7.67
2018-08-19T16:21:54.435Z,6.67
2018-08-19T16:24:24.596Z,6.25
2018-08-19T16:26:54.812Z,6.08
2018-08-19T16:29:24.970Z,7.12
2018-08-19T16:31:55.212Z,6.80
2018-08-19T16:34:25.042Z,7.80
2018-08-19T16:36:54.834Z,6.83
2018-08-19T16:39:24.939Z,7.10
2018-08-19T16:41:54.751Z,6.30
2018-08-19T16:44:25.121Z,6.37
2018-08-19T16:46:56.184Z,7.65
2018-08-19T16:49:26.584Z,7.42
2018-08-19T16:51:57.038Z,7.47
2018-08-19T16:54:27.514Z,8.25
2018-08-19T16:56:57.940Z,6.83
2018-08-19T16:59:28.365Z,7.35
2018-08-19T17:01:58.816Z,9.83
2018-08-19T17:04:29.218Z,7.05
2018-08-19T17:06:59.631Z,9.20
2018-08-19T17:09:30.378Z,8.28
2018-08-19T17:12:00.795Z,7.50
2018-08-19T17:14:31.379Z,7.25
2018-08-19T17:17:01.790Z,7.97
2018-08-19T17:19:32.181Z,7.35
2018-08-19T17:22:08.373Z,7.70
2018-08-19T17:24:38.825Z,6.90
2018-08-19T17:27:12.711Z,7.22
2018-08-19T17:29:43.222Z,9.45
2018-08-19T17:32:13.702Z,7.60
2018-08-19T17:34:44.043Z,7.85
2018-08-19T17:37:14.358Z,9.28
2018-08-19T17:39:44.832Z,8.13
2018-08-19T17:42:15.091Z,7.67
2018-08-19T17:44:45.436Z,8.53
2018-08-19T17:47:15.763Z,8.00
2018-08-19T17:49:46.121Z,8.53
2018-08-19T17:52:16.662Z,9.18
2018-08-19T17:54:46.848Z,9.00
2018-08-19T17:57:17.088Z,10.13
2018-08-19T17:59:47.264Z,9.50
2018-08-19T18:02:20.594Z,9.28
2018-08-19T18:04:50.668Z,10.60
2018-08-19T18:07:23.802Z,8.75
2018-08-19T18:09:56.958Z,10.90
2018-08-19T18:12:26.945Z,12.20
2018-08-19T18:14:57.317Z,13.13
2018-08-19T18:17:27.419Z,11.70
2018-08-19T18:19:57.721Z,13.10
2018-08-19T18:22:28.060Z,13.45
2018-08-19T18:25:04.947Z,14.07
2018-08-19T18:27:35.367Z,9.40
2018-08-19T18:30:06.109Z,13.28
2018-08-19T18:32:36.391Z,14.83
2018-08-19T18:35:07.738Z,11.40
2018-08-19T18:37:38.206Z,10.85
2018-08-19T18:40:09.186Z,11.35
2018-08-19T18:42:41.848Z,12.13
2018-08-19T18:45:14.037Z,12.05
2018-08-19T18:47:50.201Z,10.00
2018-08-19T18:50:24.336Z,14.63
2018-08-19T18:52:55.204Z,18.07
2018-08-19T18:55:25.764Z,18.50
2018-08-19T18:58:01.080Z,16.90
2018-08-19T19:00:31.686Z,13.90
2018-08-19T19:03:02.370Z,11.65
2018-08-19T19:05:39.233Z,11.08
2018-08-19T19:08:14.265Z,10.10
2018-08-19T19:10:53.528Z,12.00
2018-08-19T19:13:25.105Z,10.53
2018-08-19T19:15:55.898Z,11.08
2018-08-19T19:18:26.430Z,9.83
2018-08-19T19:21:05.167Z,11.33
2018-08-19T19:23:41.911Z,10.28
2018-08-19T19:26:12.447Z,9.70
2018-08-19T19:28:42.881Z,9.03
2018-08-19T19:31:17.450Z,9.23
2018-08-19T19:33:48.432Z,8.85
2018-08-19T19:36:23.481Z,8.25
2018-08-19T19:38:59.467Z,9.05
2018-08-19T19:41:32.163Z,8.68
2018-08-19T19:44:36.119Z,8.70
2018-08-19T19:47:07.599Z,8.45
2018-08-19T19:49:47.238Z,8.50
2018-08-19T19:52:17.665Z,9.88
2018-08-19T19:54:48.531Z,8.30
2018-08-19T19:57:19.419Z,7.70
2018-08-19T19:59:50.578Z,7.78
2018-08-19T20:02:25.922Z,7.87
2018-08-19T20:04:56.353Z,10.30
2018-08-19T20:07:27.038Z,8.20
2018-08-19T20:09:57.477Z,8.53
2018-08-19T20:12:30.941Z,6.87
2018-08-19T20:15:02.681Z,8.08
2018-08-19T20:17:33.156Z,8.28
2018-08-19T20:20:03.740Z,9.23
2018-08-19T20:22:35.237Z,7.42
2018-08-19T20:25:06.135Z,8.10
2018-08-19T20:27:36.569Z,7.85
2018-08-19T20:30:07.638Z,8.83
2018-08-19T20:32:38.015Z,7.80
2018-08-19T20:35:08.625Z,7.80
2018-08-19T20:37:39.355Z,7.65
2018-08-19T20:40:09.958Z,7.30
2018-08-19T20:42:40.379Z,7.83
2018-08-19T20:45:10.845Z,7.37
2018-08-19T20:47:41.692Z,7.65
2018-08-19T20:50:12.197Z,7.40
2018-08-19T20:52:49.678Z,7.25
2018-08-19T20:55:20.004Z,7.55
2018-08-19T20:57:50.297Z,8.30
2018-08-19T21:00:20.576Z,7.72
2018-08-19T21:02:50.695Z,7.75
2018-08-19T21:05:20.841Z,7.65
2018-08-19T21:07:51.032Z,7.40
2018-08-19T21:10:20.832Z,8.38
2018-08-19T21:12:50.715Z,7.67
2018-08-19T21:15:24.485Z,7.65
2018-08-19T21:17:54.164Z,8.48
2018-08-19T21:20:23.743Z,9.15
2018-08-19T21:22:54.775Z,9.35
2018-08-19T21:25:24.674Z,7.03
2018-08-19T21:27:54.268Z,9.85
2018-08-19T21:30:24.165Z,7.42
2018-08-19T21:32:54.661Z,7.95
2018-08-19T21:35:24.255Z,8.75
2018-08-19T21:37:53.898Z,7.83
2018-08-19T21:40:33.633Z,7.60
2018-08-19T21:43:03.207Z,7.90
2018-08-19T21:45:33.001Z,7.75
2018-08-19T21:48:02.589Z,8.33
2018-08-19T21:50:32.229Z,7.72
2018-08-19T21:53:03.871Z,8.00
2018-08-19T21:55:40.906Z,7.37
2018-08-19T21:58:10.649Z,8.35
2018-08-19T22:00:57.784Z,7.28
2018-08-19T22:03:32.592Z,7.50
2018-08-19T22:06:04.858Z,7.03
2018-08-19T22:08:34.578Z,8.48
2018-08-19T22:11:04.448Z,7.28
2018-08-19T22:13:34.041Z,7.17
2018-08-19T22:16:03.733Z,7.37
2018-08-19T22:18:33.433Z,8.25
2018-08-19T22:21:14.817Z,7.60
2018-08-19T22:23:49.536Z,9.20
2018-08-19T22:26:20.285Z,7.55
2018-08-19T22:29:52.722Z,8.08
2018-08-19T22:32:22.407Z,7.85
2018-08-19T22:34:52.043Z,8.48
2018-08-19T22:37:21.713Z,7.83
2018-08-19T22:39:51.446Z,9.00
2018-08-19T22:42:21.006Z,8.58
2018-08-19T22:44:50.553Z,8.30
2018-08-19T22:47:20.193Z,7.97
2018-08-19T22:49:49.772Z,7.57
2018-08-19T22:52:21.940Z,7.70
2018-08-19T22:54:54.974Z,8.60
2018-08-19T22:57:24.658Z,8.03
2018-08-19T22:59:54.533Z,8.03
2018-08-19T23:02:24.504Z,8.05
2018-08-19T23:04:54.100Z,7.72
2018-08-19T23:07:23.701Z,10.35
2018-08-19T23:09:53.324Z,8.55
2018-08-19T23:12:22.919Z,8.37
2018-08-19T23:15:03.306Z,8.13
2018-08-19T23:17:33.014Z,9.23
2018-08-19T23:20:02.581Z,9.45
2018-08-19T23:22:32.281Z,8.30
2018-08-19T23:25:01.893Z,8.70
2018-08-19T23:27:31.426Z,8.60
2018-08-19T23:30:01.014Z,8.17
2018-08-19T23:32:30.764Z,8.57
2018-08-19T23:35:00.422Z,7.93
2018-08-19T23:37:30.025Z,8.33
2018-08-19T23:39:59.663Z,8.50
2018-08-19T23:42:35.623Z,8.03
2018-08-19T23:45:05.367Z,8.20
2018-08-19T23:47:34.962Z,8.37
2018-08-19T23:50:04.629Z,8.27
2018-08-19T23:52:34.269Z,8.97
2018-08-19T23:55:03.964Z,8.27
2018-08-19T23:57:33.543Z,8.00
